sensor_id;sensor_type;location;lat;lon;timestamp;P1;durP1;ratioP1;P2;durP2;ratioP2
75272;SDS011;63869;52.344;16.928;2022-10-18T00:01:42;215.60;;;106.63;;
75272;SDS011;63869;52.344;16.928;2022-10-18T00:04:07;145.18;;;85.65;;
75272;SDS011;63869;52.344;16.928;2022-10-18T00:06:32;78.38;;;46.10;;
75272;SDS011;63869;52.344;16.928;2022-10-18T00:08:58;62.40;;;32.85;;
75272;SDS011;63869;52.344;16.928;2022-10-18T00:11:23;41.47;;;22.33;;
75272;SDS011;63869;52.344;16.928;2022-10-18T00:13:48;36.42;;;19.83;;
75272;SDS011;63869;52.344;16.928;2022-10-18T00:16:14;35.35;;;18.88;;
75272;SDS011;63869;52.344;16.928;2022-10-18T00:18:41;53.67;;;24.98;;
75272;SDS011;63869;52.344;16.928;2022-10-18T00:21:09;42.15;;;22.35;;
75272;SDS011;63869;52.344;16.928;2022-10-18T00:23:36;60.50;;;26.67;;
75272;SDS011;63869;52.344;16.928;2022-10-18T00:26:03;69.00;;;27.83;;
75272;SDS011;63869;52.344;16.928;2022-10-18T00:28:31;71.00;;;28.42;;
75272;SDS011;63869;52.344;16.928;2022-10-18T00:31:07;65.85;;;26.45;;
75272;SDS011;63869;52.344;16.928;2022-10-18T00:33:36;43.90;;;19.65;;
75272;SDS011;63869;52.344;16.928;2022-10-18T00:36:02;39.55;;;19.40;;
75272;SDS011;63869;52.344;16.928;2022-10-18T00:38:27;36.25;;;18.42;;
75272;SDS011;63869;52.344;16.928;2022-10-18T00:40:52;38.60;;;19.17;;
75272;SDS011;63869;52.344;16.928;2022-10-18T00:43:18;37.33;;;19.58;;
75272;SDS011;63869;52.344;16.928;2022-10-18T00:45:43;38.42;;;18.33;;
75272;SDS011;63869;52.344;16.928;2022-10-18T00:48:08;32.72;;;18.10;;
75272;SDS011;63869;52.344;16.928;2022-10-18T00:50:35;36.47;;;17.88;;
75272;SDS011;63869;52.344;16.928;2022-10-18T00:53:01;43.78;;;23.38;;
75272;SDS011;63869;52.344;16.928;2022-10-18T00:55:29;55.22;;;35.85;;
75272;SDS011;63869;52.344;16.928;2022-10-18T00:57:55;47.17;;;26.67;;
75272;SDS011;63869;52.344;16.928;2022-10-18T01:00:21;45.28;;;23.48;;
75272;SDS011;63869;52.344;16.928;2022-10-18T01:02:47;41.92;;;21.58;;
75272;SDS011;63869;52.344;16.928;2022-10-18T01:05:13;37.45;;;19.25;;
75272;SDS011;63869;52.344;16.928;2022-10-18T01:10:49;37.33;;;19.42;;
75272;SDS011;63869;52.344;16.928;2022-10-18T01:16:11;26.92;;;16.70;;
75272;SDS011;63869;52.344;16.928;2022-10-18T01:21:13;26.90;;;16.83;;
75272;SDS011;63869;52.344;16.928;2022-10-18T01:31:49;50.05;;;23.73;;
75272;SDS011;63869;52.344;16.928;2022-10-18T01:34:21;41.65;;;20.70;;
75272;SDS011;63869;52.344;16.928;2022-10-18T01:36:51;37.92;;;19.02;;
75272;SDS011;63869;52.344;16.928;2022-10-18T01:39:20;34.85;;;17.88;;
75272;SDS011;63869;52.344;16.928;2022-10-18T01:41:50;38.45;;;18.70;;
75272;SDS011;63869;52.344;16.928;2022-10-18T01:44:21;41.33;;;19.10;;
75272;SDS011;63869;52.344;16.928;2022-10-18T01:46:50;40.42;;;21.67;;
75272;SDS011;63869;52.344;16.928;2022-10-18T01:49:17;42.65;;;25.02;;
75272;SDS011;63869;52.344;16.928;2022-10-18T01:51:43;39.97;;;22.50;;
75272;SDS011;63869;52.344;16.928;2022-10-18T01:54:08;36.80;;;19.60;;
75272;SDS011;63869;52.344;16.928;2022-10-18T01:56:41;43.03;;;21.42;;
75272;SDS011;63869;52.344;16.928;2022-10-18T02:02:18;41.05;;;20.08;;
75272;SDS011;63869;52.344;16.928;2022-10-18T02:07:43;36.88;;;19.27;;
75272;SDS011;63869;52.344;16.928;2022-10-18T02:10:23;36.45;;;19.88;;
75272;SDS011;63869;52.344;16.928;2022-10-18T02:12:55;37.00;;;19.93;;
75272;SDS011;63869;52.344;16.928;2022-10-18T02:15:31;38.63;;;19.80;;
75272;SDS011;63869;52.344;16.928;2022-10-18T02:18:00;36.10;;;19.77;;
75272;SDS011;63869;52.344;16.928;2022-10-18T02:20:29;38.95;;;19.52;;
75272;SDS011;63869;52.344;16.928;2022-10-18T02:22:56;34.83;;;18.70;;
75272;SDS011;63869;52.344;16.928;2022-10-18T02:25:24;34.63;;;19.13;;
75272;SDS011;63869;52.344;16.928;2022-10-18T02:27:54;35.13;;;19.17;;
75272;SDS011;63869;52.344;16.928;2022-10-18T02:30:23;34.67;;;19.25;;
75272;SDS011;63869;52.344;16.928;2022-10-18T02:35:33;38.58;;;20.55;;
75272;SDS011;63869;52.344;16.928;2022-10-18T02:38:01;44.30;;;21.02;;
75272;SDS011;63869;52.344;16.928;2022-10-18T02:40:29;43.85;;;21.52;;
75272;SDS011;63869;52.344;16.928;2022-10-18T02:42:56;40.15;;;19.65;;
75272;SDS011;63869;52.344;16.928;2022-10-18T02:45:23;36.63;;;19.83;;
75272;SDS011;63869;52.344;16.928;2022-10-18T02:47:49;33.83;;;19.85;;
75272;SDS011;63869;52.344;16.928;2022-10-18T02:50:15;32.92;;;19.23;;
75272;SDS011;63869;52.344;16.928;2022-10-18T02:52:41;34.90;;;18.98;;
75272;SDS011;63869;52.344;16.928;2022-10-18T02:55:07;35.28;;;19.98;;
75272;SDS011;63869;52.344;16.928;2022-10-18T02:57:32;37.17;;;19.77;;
75272;SDS011;63869;52.344;16.928;2022-10-18T02:59:58;36.42;;;18.88;;
75272;SDS011;63869;52.344;16.928;2022-10-18T03:02:23;38.88;;;19.45;;
75272;SDS011;63869;52.344;16.928;2022-10-18T03:04:49;37.00;;;18.80;;
75272;SDS011;63869;52.344;16.928;2022-10-18T03:07:14;34.97;;;19.92;;
75272;SDS011;63869;52.344;16.928;2022-10-18T03:09:40;39.85;;;20.27;;
75272;SDS011;63869;52.344;16.928;2022-10-18T03:12:05;39.78;;;19.13;;
75272;SDS011;63869;52.344;16.928;2022-10-18T03:14:30;35.45;;;19.05;;
75272;SDS011;63869;52.344;16.928;2022-10-18T03:16:55;40.63;;;19.65;;
75272;SDS011;63869;52.344;16.928;2022-10-18T03:19:21;46.15;;;21.77;;
75272;SDS011;63869;52.344;16.928;2022-10-18T03:21:46;38.90;;;20.90;;
75272;SDS011;63869;52.344;16.928;2022-10-18T03:24:12;42.78;;;22.40;;
75272;SDS011;63869;52.344;16.928;2022-10-18T03:26:37;51.50;;;26.55;;
75272;SDS011;63869;52.344;16.928;2022-10-18T03:29:03;46.20;;;24.13;;
75272;SDS011;63869;52.344;16.928;2022-10-18T03:31:29;37.70;;;21.48;;
75272;SDS011;63869;52.344;16.928;2022-10-18T03:33:54;43.03;;;21.30;;
75272;SDS011;63869;52.344;16.928;2022-10-18T03:36:19;39.70;;;20.33;;
75272;SDS011;63869;52.344;16.928;2022-10-18T03:38:45;42.00;;;20.13;;
75272;SDS011;63869;52.344;16.928;2022-10-18T03:41:10;42.95;;;20.92;;
75272;SDS011;63869;52.344;16.928;2022-10-18T03:43:35;44.50;;;22.27;;
75272;SDS011;63869;52.344;16.928;2022-10-18T03:46:01;48.25;;;24.63;;
75272;SDS011;63869;52.344;16.928;2022-10-18T03:48:26;46.88;;;22.05;;
75272;SDS011;63869;52.344;16.928;2022-10-18T03:50:51;41.80;;;22.55;;
75272;SDS011;63869;52.344;16.928;2022-10-18T03:53:17;38.88;;;21.40;;
75272;SDS011;63869;52.344;16.928;2022-10-18T03:55:42;38.45;;;20.88;;
75272;SDS011;63869;52.344;16.928;2022-10-18T03:58:07;38.28;;;20.42;;
75272;SDS011;63869;52.344;16.928;2022-10-18T04:00:33;39.05;;;21.08;;
75272;SDS011;63869;52.344;16.928;2022-10-18T04:02:58;33.00;;;20.08;;
75272;SDS011;63869;52.344;16.928;2022-10-18T04:05:23;33.33;;;19.23;;
75272;SDS011;63869;52.344;16.928;2022-10-18T04:07:51;41.67;;;21.30;;
75272;SDS011;63869;52.344;16.928;2022-10-18T04:10:16;39.97;;;21.73;;
75272;SDS011;63869;52.344;16.928;2022-10-18T04:12:42;44.22;;;21.73;;
75272;SDS011;63869;52.344;16.928;2022-10-18T04:15:08;39.42;;;20.75;;
75272;SDS011;63869;52.344;16.928;2022-10-18T04:17:34;37.72;;;20.38;;
75272;SDS011;63869;52.344;16.928;2022-10-18T04:19:59;42.47;;;20.92;;
75272;SDS011;63869;52.344;16.928;2022-10-18T04:22:25;37.08;;;20.58;;
75272;SDS011;63869;52.344;16.928;2022-10-18T04:24:50;40.80;;;21.13;;
75272;SDS011;63869;52.344;16.928;2022-10-18T04:27:17;42.92;;;20.45;;
75272;SDS011;63869;52.344;16.928;2022-10-18T04:29:43;44.40;;;19.48;;
75272;SDS011;63869;52.344;16.928;2022-10-18T04:32:08;37.22;;;20.13;;
75272;SDS011;63869;52.344;16.928;2022-10-18T04:34:33;36.85;;;20.08;;
75272;SDS011;63869;52.344;16.928;2022-10-18T04:36:59;34.78;;;18.85;;
75272;SDS011;63869;52.344;16.928;2022-10-18T04:39:24;40.13;;;19.17;;
75272;SDS011;63869;52.344;16.928;2022-10-18T04:41:49;31.00;;;16.58;;
75272;SDS011;63869;52.344;16.928;2022-10-18T04:44:14;36.45;;;19.23;;
75272;SDS011;63869;52.344;16.928;2022-10-18T04:46:40;37.05;;;20.50;;
75272;SDS011;63869;52.344;16.928;2022-10-18T04:49:05;34.92;;;19.58;;
75272;SDS011;63869;52.344;16.928;2022-10-18T04:51:30;34.53;;;19.40;;
75272;SDS011;63869;52.344;16.928;2022-10-18T04:53:56;33.85;;;20.15;;
75272;SDS011;63869;52.344;16.928;2022-10-18T04:56:21;37.15;;;19.80;;
75272;SDS011;63869;52.344;16.928;2022-10-18T04:58:46;34.22;;;19.15;;
75272;SDS011;63869;52.344;16.928;2022-10-18T05:01:12;36.63;;;19.45;;
75272;SDS011;63869;52.344;16.928;2022-10-18T05:03:37;38.97;;;20.20;;
75272;SDS011;63869;52.344;16.928;2022-10-18T05:06:03;35.63;;;19.75;;
75272;SDS011;63869;52.344;16.928;2022-10-18T05:08:30;32.15;;;18.50;;
75272;SDS011;63869;52.344;16.928;2022-10-18T05:10:56;33.13;;;18.52;;
75272;SDS011;63869;52.344;16.928;2022-10-18T05:13:21;32.15;;;18.60;;
75272;SDS011;63869;52.344;16.928;2022-10-18T05:15:47;30.73;;;17.90;;
75272;SDS011;63869;52.344;16.928;2022-10-18T05:18:12;36.15;;;19.63;;
75272;SDS011;63869;52.344;16.928;2022-10-18T05:20:38;28.98;;;17.63;;
75272;SDS011;63869;52.344;16.928;2022-10-18T05:23:04;28.23;;;17.67;;
75272;SDS011;63869;52.344;16.928;2022-10-18T05:25:29;35.78;;;20.70;;
75272;SDS011;63869;52.344;16.928;2022-10-18T05:27:54;34.30;;;19.38;;
75272;SDS011;63869;52.344;16.928;2022-10-18T05:30:20;34.90;;;19.27;;
75272;SDS011;63869;52.344;16.928;2022-10-18T05:32:46;36.15;;;19.88;;
75272;SDS011;63869;52.344;16.928;2022-10-18T05:35:11;35.13;;;18.88;;
75272;SDS011;63869;52.344;16.928;2022-10-18T05:37:36;29.77;;;18.23;;
75272;SDS011;63869;52.344;16.928;2022-10-18T05:40:02;29.35;;;17.48;;
75272;SDS011;63869;52.344;16.928;2022-10-18T05:42:27;34.38;;;18.85;;
75272;SDS011;63869;52.344;16.928;2022-10-18T05:44:53;32.90;;;20.20;;
75272;SDS011;63869;52.344;16.928;2022-10-18T05:47:18;34.53;;;18.70;;
75272;SDS011;63869;52.344;16.928;2022-10-18T05:49:43;33.45;;;19.08;;
75272;SDS011;63869;52.344;16.928;2022-10-18T05:52:08;29.52;;;18.45;;
75272;SDS011;63869;52.344;16.928;2022-10-18T05:54:34;36.45;;;21.60;;
75272;SDS011;63869;52.344;16.928;2022-10-18T05:56:59;30.55;;;18.23;;
75272;SDS011;63869;52.344;16.928;2022-10-18T05:59:24;28.00;;;18.15;;
75272;SDS011;63869;52.344;16.928;2022-10-18T06:01:50;33.97;;;19.02;;
75272;SDS011;63869;52.344;16.928;2022-10-18T06:04:15;31.98;;;18.98;;
75272;SDS011;63869;52.344;16.928;2022-10-18T06:06:42;35.78;;;19.08;;
75272;SDS011;63869;52.344;16.928;2022-10-18T06:09:07;30.25;;;19.08;;
75272;SDS011;63869;52.344;16.928;2022-10-18T06:11:34;39.97;;;19.35;;
75272;SDS011;63869;52.344;16.928;2022-10-18T06:14:00;50.58;;;20.92;;
75272;SDS011;63869;52.344;16.928;2022-10-18T06:16:26;67.10;;;21.38;;
75272;SDS011;63869;52.344;16.928;2022-10-18T06:18:52;37.15;;;20.42;;
75272;SDS011;63869;52.344;16.928;2022-10-18T06:21:19;41.72;;;20.48;;
75272;SDS011;63869;52.344;16.928;2022-10-18T06:23:48;35.67;;;20.70;;
75272;SDS011;63869;52.344;16.928;2022-10-18T06:26:14;37.30;;;20.30;;
75272;SDS011;63869;52.344;16.928;2022-10-18T06:28:39;37.33;;;20.10;;
75272;SDS011;63869;52.344;16.928;2022-10-18T06:31:05;38.67;;;20.90;;
75272;SDS011;63869;52.344;16.928;2022-10-18T06:33:31;32.20;;;18.05;;
75272;SDS011;63869;52.344;16.928;2022-10-18T06:36:01;37.42;;;21.05;;
75272;SDS011;63869;52.344;16.928;2022-10-18T06:38:37;38.20;;;19.25;;
75272;SDS011;63869;52.344;16.928;2022-10-18T06:41:02;35.47;;;20.35;;
75272;SDS011;63869;52.344;16.928;2022-10-18T06:43:29;35.10;;;20.15;;
75272;SDS011;63869;52.344;16.928;2022-10-18T06:45:54;37.22;;;19.52;;
75272;SDS011;63869;52.344;16.928;2022-10-18T06:48:20;33.67;;;20.10;;
75272;SDS011;63869;52.344;16.928;2022-10-18T06:50:49;33.03;;;19.42;;
75272;SDS011;63869;52.344;16.928;2022-10-18T06:53:18;35.17;;;19.50;;
75272;SDS011;63869;52.344;16.928;2022-10-18T06:55:44;34.97;;;19.08;;
75272;SDS011;63869;52.344;16.928;2022-10-18T06:58:10;34.33;;;19.27;;
75272;SDS011;63869;52.344;16.928;2022-10-18T07:00:36;35.80;;;20.63;;
75272;SDS011;63869;52.344;16.928;2022-10-18T07:03:01;40.85;;;21.52;;
75272;SDS011;63869;52.344;16.928;2022-10-18T07:05:26;38.10;;;21.00;;
75272;SDS011;63869;52.344;16.928;2022-10-18T07:07:52;36.03;;;20.77;;
75272;SDS011;63869;52.344;16.928;2022-10-18T07:10:17;41.70;;;20.20;;
75272;SDS011;63869;52.344;16.928;2022-10-18T07:12:43;41.67;;;20.35;;
75272;SDS011;63869;52.344;16.928;2022-10-18T07:15:08;33.03;;;20.42;;
75272;SDS011;63869;52.344;16.928;2022-10-18T07:17:34;34.15;;;20.65;;
75272;SDS011;63869;52.344;16.928;2022-10-18T07:20:00;34.10;;;20.33;;
75272;SDS011;63869;52.344;16.928;2022-10-18T07:22:25;33.00;;;19.60;;
75272;SDS011;63869;52.344;16.928;2022-10-18T07:24:50;33.28;;;20.10;;
75272;SDS011;63869;52.344;16.928;2022-10-18T07:27:16;34.97;;;19.58;;
75272;SDS011;63869;52.344;16.928;2022-10-18T07:29:41;30.95;;;18.15;;
75272;SDS011;63869;52.344;16.928;2022-10-18T07:32:06;33.10;;;20.08;;
75272;SDS011;63869;52.344;16.928;2022-10-18T07:34:31;35.15;;;20.08;;
75272;SDS011;63869;52.344;16.928;2022-10-18T07:36:57;32.65;;;18.63;;
75272;SDS011;63869;52.344;16.928;2022-10-18T07:39:22;39.72;;;19.25;;
75272;SDS011;63869;52.344;16.928;2022-10-18T07:41:47;38.50;;;20.15;;
75272;SDS011;63869;52.344;16.928;2022-10-18T07:44:12;31.25;;;20.10;;
75272;SDS011;63869;52.344;16.928;2022-10-18T07:46:38;34.15;;;19.25;;
75272;SDS011;63869;52.344;16.928;2022-10-18T07:49:03;36.42;;;19.92;;
75272;SDS011;63869;52.344;16.928;2022-10-18T07:51:28;33.95;;;20.77;;
75272;SDS011;63869;52.344;16.928;2022-10-18T07:53:56;38.10;;;20.08;;
75272;SDS011;63869;52.344;16.928;2022-10-18T07:56:22;35.25;;;19.48;;
75272;SDS011;63869;52.344;16.928;2022-10-18T07:58:48;40.13;;;20.73;;
75272;SDS011;63869;52.344;16.928;2022-10-18T08:01:15;43.70;;;19.98;;
75272;SDS011;63869;52.344;16.928;2022-10-18T08:03:41;37.15;;;21.05;;
75272;SDS011;63869;52.344;16.928;2022-10-18T08:06:07;39.72;;;18.92;;
75272;SDS011;63869;52.344;16.928;2022-10-18T08:08:34;37.42;;;18.17;;
75272;SDS011;63869;52.344;16.928;2022-10-18T08:11:03;31.88;;;18.20;;
75272;SDS011;63869;52.344;16.928;2022-10-18T08:13:31;30.02;;;17.60;;
75272;SDS011;63869;52.344;16.928;2022-10-18T08:16:00;31.50;;;18.20;;
75272;SDS011;63869;52.344;16.928;2022-10-18T08:18:26;32.30;;;17.63;;
75272;SDS011;63869;52.344;16.928;2022-10-18T08:20:52;34.08;;;18.30;;
75272;SDS011;63869;52.344;16.928;2022-10-18T08:23:17;29.48;;;17.30;;
75272;SDS011;63869;52.344;16.928;2022-10-18T08:25:42;30.00;;;17.70;;
75272;SDS011;63869;52.344;16.928;2022-10-18T08:28:07;35.17;;;18.95;;
75272;SDS011;63869;52.344;16.928;2022-10-18T08:30:33;38.58;;;18.17;;
75272;SDS011;63869;52.344;16.928;2022-10-18T08:32:59;35.88;;;19.23;;
75272;SDS011;63869;52.344;16.928;2022-10-18T08:35:25;34.00;;;19.48;;
75272;SDS011;63869;52.344;16.928;2022-10-18T08:37:50;38.33;;;18.38;;
75272;SDS011;63869;52.344;16.928;2022-10-18T08:40:16;31.48;;;18.90;;
75272;SDS011;63869;52.344;16.928;2022-10-18T08:43:02;34.63;;;18.90;;
75272;SDS011;63869;52.344;16.928;2022-10-18T08:45:34;35.15;;;19.05;;
75272;SDS011;63869;52.344;16.928;2022-10-18T08:48:03;32.88;;;18.40;;
75272;SDS011;63869;52.344;16.928;2022-10-18T08:50:32;31.15;;;17.35;;
75272;SDS011;63869;52.344;16.928;2022-10-18T08:55:45;35.22;;;17.38;;
75272;SDS011;63869;52.344;16.928;2022-10-18T08:58:28;31.35;;;17.67;;
75272;SDS011;63869;52.344;16.928;2022-10-18T09:00:57;32.20;;;17.40;;
75272;SDS011;63869;52.344;16.928;2022-10-18T09:03:37;30.30;;;17.02;;
75272;SDS011;63869;52.344;16.928;2022-10-18T09:09:06;31.38;;;18.00;;
75272;SDS011;63869;52.344;16.928;2022-10-18T09:22:42;34.85;;;19.23;;
75272;SDS011;63869;52.344;16.928;2022-10-18T09:25:21;28.80;;;17.77;;
75272;SDS011;63869;52.344;16.928;2022-10-18T09:27:56;31.55;;;18.30;;
75272;SDS011;63869;52.344;16.928;2022-10-18T09:30:34;31.08;;;19.23;;
75272;SDS011;63869;52.344;16.928;2022-10-18T09:33:25;31.00;;;18.45;;
75272;SDS011;63869;52.344;16.928;2022-10-18T09:36:01;35.13;;;18.52;;
75272;SDS011;63869;52.344;16.928;2022-10-18T09:38:40;32.70;;;19.30;;
75272;SDS011;63869;52.344;16.928;2022-10-18T09:46:29;32.45;;;19.25;;
75272;SDS011;63869;52.344;16.928;2022-10-18T09:48:59;34.15;;;20.45;;
75272;SDS011;63869;52.344;16.928;2022-10-18T09:51:35;34.90;;;19.13;;
75272;SDS011;63869;52.344;16.928;2022-10-18T10:02:08;37.47;;;20.45;;
75272;SDS011;63869;52.344;16.928;2022-10-18T10:04:38;37.17;;;20.00;;
75272;SDS011;63869;52.344;16.928;2022-10-18T10:07:03;34.80;;;20.73;;
75272;SDS011;63869;52.344;16.928;2022-10-18T10:09:38;36.95;;;20.88;;
75272;SDS011;63869;52.344;16.928;2022-10-18T10:17:53;36.90;;;22.05;;
75272;SDS011;63869;52.344;16.928;2022-10-18T10:20:21;37.38;;;22.23;;
75272;SDS011;63869;52.344;16.928;2022-10-18T10:22:52;37.72;;;21.80;;
75272;SDS011;63869;52.344;16.928;2022-10-18T10:25:22;39.13;;;22.58;;
75272;SDS011;63869;52.344;16.928;2022-10-18T10:28:00;38.88;;;22.55;;
75272;SDS011;63869;52.344;16.928;2022-10-18T10:30:29;43.30;;;24.05;;
75272;SDS011;63869;52.344;16.928;2022-10-18T10:32:56;42.08;;;24.67;;
75272;SDS011;63869;52.344;16.928;2022-10-18T10:38:04;45.50;;;21.67;;
75272;SDS011;63869;52.344;16.928;2022-10-18T10:40:32;42.20;;;22.73;;
75272;SDS011;63869;52.344;16.928;2022-10-18T10:45:40;55.40;;;30.13;;
75272;SDS011;63869;52.344;16.928;2022-10-18T10:48:20;59.03;;;29.88;;
75272;SDS011;63869;52.344;16.928;2022-10-18T10:53:28;49.92;;;25.20;;
75272;SDS011;63869;52.344;16.928;2022-10-18T10:55:56;51.75;;;26.02;;
75272;SDS011;63869;52.344;16.928;2022-10-18T10:58:22;48.00;;;23.55;;
75272;SDS011;63869;52.344;16.928;2022-10-18T11:00:51;44.35;;;21.48;;
75272;SDS011;63869;52.344;16.928;2022-10-18T11:03:17;50.70;;;21.80;;
75272;SDS011;63869;52.344;16.928;2022-10-18T11:05:45;54.30;;;22.45;;
75272;SDS011;63869;52.344;16.928;2022-10-18T11:08:30;47.58;;;21.63;;
75272;SDS011;63869;52.344;16.928;2022-10-18T11:11:02;52.08;;;20.52;;
75272;SDS011;63869;52.344;16.928;2022-10-18T11:16:23;47.15;;;18.58;;
75272;SDS011;63869;52.344;16.928;2022-10-18T11:18:56;38.67;;;19.15;;
75272;SDS011;63869;52.344;16.928;2022-10-18T11:21:24;36.17;;;17.92;;
75272;SDS011;63869;52.344;16.928;2022-10-18T11:23:52;41.25;;;17.55;;
75272;SDS011;63869;52.344;16.928;2022-10-18T11:32:15;17.40;;;9.95;;
75272;SDS011;63869;52.344;16.928;2022-10-18T11:34:52;20.83;;;9.30;;
75272;SDS011;63869;52.344;16.928;2022-10-18T11:37:41;16.48;;;9.52;;
75272;SDS011;63869;52.344;16.928;2022-10-18T11:48:22;21.17;;;10.60;;
75272;SDS011;63869;52.344;16.928;2022-10-18T11:51:22;21.27;;;10.82;;
75272;SDS011;63869;52.344;16.928;2022-10-18T11:54:03;21.98;;;12.02;;
75272;SDS011;63869;52.344;16.928;2022-10-18T11:59:23;19.48;;;10.40;;
75272;SDS011;63869;52.344;16.928;2022-10-18T12:05:16;45.45;;;10.05;;
75272;SDS011;63869;52.344;16.928;2022-10-18T12:07:47;22.10;;;7.25;;
75272;SDS011;63869;52.344;16.928;2022-10-18T12:10:19;36.88;;;7.65;;
75272;SDS011;63869;52.344;16.928;2022-10-18T12:12:51;14.43;;;6.05;;
75272;SDS011;63869;52.344;16.928;2022-10-18T12:15:22;16.83;;;4.68;;
75272;SDS011;63869;52.344;16.928;2022-10-18T12:17:58;11.43;;;5.80;;
75272;SDS011;63869;52.344;16.928;2022-10-18T12:20:30;13.55;;;4.97;;
75272;SDS011;63869;52.344;16.928;2022-10-18T12:25:42;7.82;;;3.88;;
75272;SDS011;63869;52.344;16.928;2022-10-18T12:28:40;12.18;;;4.43;;
75272;SDS011;63869;52.344;16.928;2022-10-18T12:33:46;12.88;;;5.68;;
75272;SDS011;63869;52.344;16.928;2022-10-18T12:38:50;16.27;;;6.55;;
75272;SDS011;63869;52.344;16.928;2022-10-18T12:41:20;19.40;;;5.70;;
75272;SDS011;63869;52.344;16.928;2022-10-18T12:43:50;10.55;;;4.97;;
75272;SDS011;63869;52.344;16.928;2022-10-18T12:46:17;11.10;;;4.55;;
75272;SDS011;63869;52.344;16.928;2022-10-18T12:48:43;10.95;;;4.15;;
75272;SDS011;63869;52.344;16.928;2022-10-18T12:51:20;19.77;;;6.32;;
75272;SDS011;63869;52.344;16.928;2022-10-18T12:53:47;45.92;;;22.42;;
75272;SDS011;63869;52.344;16.928;2022-10-18T13:02:06;27.85;;;9.93;;
75272;SDS011;63869;52.344;16.928;2022-10-18T13:09:29;16.70;;;6.72;;
75272;SDS011;63869;52.344;16.928;2022-10-18T13:28:44;27.60;;;10.15;;
75272;SDS011;63869;52.344;16.928;2022-10-18T13:36:54;14.50;;;5.30;;
75272;SDS011;63869;52.344;16.928;2022-10-18T13:39:25;16.33;;;6.68;;
75272;SDS011;63869;52.344;16.928;2022-10-18T14:08:59;32.08;;;12.80;;
75272;SDS011;63869;52.344;16.928;2022-10-18T14:14:47;47.70;;;21.42;;
75272;SDS011;63869;52.344;16.928;2022-10-18T14:17:39;50.90;;;23.50;;
75272;SDS011;63869;52.344;16.928;2022-10-18T14:25:37;69.18;;;31.70;;
75272;SDS011;63869;52.344;16.928;2022-10-18T14:30:29;70.35;;;29.13;;
75272;SDS011;63869;52.344;16.928;2022-10-18T14:32:55;46.78;;;21.27;;
75272;SDS011;63869;52.344;16.928;2022-10-18T14:35:25;46.35;;;19.67;;
75272;SDS011;63869;52.344;16.928;2022-10-18T14:37:53;69.50;;;25.00;;
75272;SDS011;63869;52.344;16.928;2022-10-18T14:43:02;50.30;;;20.42;;
75272;SDS011;63869;52.344;16.928;2022-10-18T14:45:38;50.92;;;24.38;;
75272;SDS011;63869;52.344;16.928;2022-10-18T14:48:05;55.65;;;19.38;;
75272;SDS011;63869;52.344;16.928;2022-10-18T14:50:36;64.97;;;24.70;;
75272;SDS011;63869;52.344;16.928;2022-10-18T14:53:05;59.20;;;20.85;;
75272;SDS011;63869;52.344;16.928;2022-10-18T14:55:33;39.55;;;17.52;;
75272;SDS011;63869;52.344;16.928;2022-10-18T14:57:59;68.05;;;23.42;;
75272;SDS011;63869;52.344;16.928;2022-10-18T15:00:28;37.83;;;16.70;;
75272;SDS011;63869;52.344;16.928;2022-10-18T15:05:25;44.80;;;20.10;;
75272;SDS011;63869;52.344;16.928;2022-10-18T15:07:51;47.92;;;20.67;;
75272;SDS011;63869;52.344;16.928;2022-10-18T15:10:24;48.22;;;22.50;;
75272;SDS011;63869;52.344;16.928;2022-10-18T15:12:53;60.08;;;26.05;;
75272;SDS011;63869;52.344;16.928;2022-10-18T15:15:25;72.50;;;30.17;;
75272;SDS011;63869;52.344;16.928;2022-10-18T15:17:52;54.65;;;22.58;;
75272;SDS011;63869;52.344;16.928;2022-10-18T15:20:23;66.03;;;28.45;;
75272;SDS011;63869;52.344;16.928;2022-10-18T15:22:51;89.45;;;32.97;;
75272;SDS011;63869;52.344;16.928;2022-10-18T15:25:20;97.25;;;40.92;;
75272;SDS011;63869;52.344;16.928;2022-10-18T15:27:49;89.32;;;38.47;;
75272;SDS011;63869;52.344;16.928;2022-10-18T15:32:50;88.75;;;36.53;;
75272;SDS011;63869;52.344;16.928;2022-10-18T15:35:27;115.80;;;47.55;;
75272;SDS011;63869;52.344;16.928;2022-10-18T15:37:55;86.03;;;32.80;;
75272;SDS011;63869;52.344;16.928;2022-10-18T15:42:51;69.45;;;31.38;;
75272;SDS011;63869;52.344;16.928;2022-10-18T15:50:40;51.28;;;24.42;;
75272;SDS011;63869;52.344;16.928;2022-10-18T15:55:58;57.28;;;24.85;;
75272;SDS011;63869;52.344;16.928;2022-10-18T15:58:26;62.97;;;25.05;;
75272;SDS011;63869;52.344;16.928;2022-10-18T16:00:54;57.40;;;25.80;;
75272;SDS011;63869;52.344;16.928;2022-10-18T16:03:22;39.50;;;18.50;;
75272;SDS011;63869;52.344;16.928;2022-10-18T16:05:48;52.25;;;19.77;;
75272;SDS011;63869;52.344;16.928;2022-10-18T16:08:26;47.40;;;18.70;;
75272;SDS011;63869;52.344;16.928;2022-10-18T16:10:54;39.15;;;18.13;;
75272;SDS011;63869;52.344;16.928;2022-10-18T16:13:22;35.60;;;17.88;;
75272;SDS011;63869;52.344;16.928;2022-10-18T16:15:48;42.33;;;19.20;;
75272;SDS011;63869;52.344;16.928;2022-10-18T16:18:14;37.17;;;18.35;;
75272;SDS011;63869;52.344;16.928;2022-10-18T16:20:42;44.00;;;20.30;;
75272;SDS011;63869;52.344;16.928;2022-10-18T16:23:21;170.70;;;101.10;;
75272;SDS011;63869;52.344;16.928;2022-10-18T16:28:19;154.85;;;61.70;;
75272;SDS011;63869;52.344;16.928;2022-10-18T16:30:51;77.63;;;38.15;;
75272;SDS011;63869;52.344;16.928;2022-10-18T16:33:24;73.82;;;37.92;;
75272;SDS011;63869;52.344;16.928;2022-10-18T16:35:50;87.53;;;39.55;;
75272;SDS011;63869;52.344;16.928;2022-10-18T16:38:25;61.35;;;31.60;;
75272;SDS011;63869;52.344;16.928;2022-10-18T16:40:51;57.38;;;28.42;;
75272;SDS011;63869;52.344;16.928;2022-10-18T16:43:17;48.88;;;21.83;;
75272;SDS011;63869;52.344;16.928;2022-10-18T16:48:08;42.42;;;19.08;;
75272;SDS011;63869;52.344;16.928;2022-10-18T16:50:37;44.78;;;24.27;;
75272;SDS011;63869;52.344;16.928;2022-10-18T16:53:03;41.80;;;19.90;;
75272;SDS011;63869;52.344;16.928;2022-10-18T16:55:28;43.70;;;21.10;;
75272;SDS011;63869;52.344;16.928;2022-10-18T16:57:54;46.78;;;21.50;;
75272;SDS011;63869;52.344;16.928;2022-10-18T17:00:20;46.75;;;19.90;;
75272;SDS011;63869;52.344;16.928;2022-10-18T17:02:47;45.30;;;21.35;;
75272;SDS011;63869;52.344;16.928;2022-10-18T17:05:14;34.75;;;16.38;;
75272;SDS011;63869;52.344;16.928;2022-10-18T17:07:40;34.60;;;17.27;;
75272;SDS011;63869;52.344;16.928;2022-10-18T17:10:06;37.13;;;16.40;;
75272;SDS011;63869;52.344;16.928;2022-10-18T17:12:32;28.77;;;17.65;;
75272;SDS011;63869;52.344;16.928;2022-10-18T17:14:57;37.33;;;19.13;;
75272;SDS011;63869;52.344;16.928;2022-10-18T17:17:23;91.38;;;49.33;;
75272;SDS011;63869;52.344;16.928;2022-10-18T17:19:48;62.47;;;40.67;;
75272;SDS011;63869;52.344;16.928;2022-10-18T17:22:13;52.70;;;27.60;;
75272;SDS011;63869;52.344;16.928;2022-10-18T17:24:39;43.35;;;23.98;;
75272;SDS011;63869;52.344;16.928;2022-10-18T17:27:04;40.42;;;21.30;;
75272;SDS011;63869;52.344;16.928;2022-10-18T17:29:29;39.00;;;20.25;;